sensor_id;sensor_type;location;lat;lon;timestamp;P1;durP1;ratioP1;P2;durP2;ratioP2
27003;SDS011;14546;47.590;19.022;2024-02-14T00:00:21;10.45;;;6.72;;
27003;SDS011;14546;47.590;19.022;2024-02-14T00:02:50;12.43;;;7.75;;
27003;SDS011;14546;47.590;19.022;2024-02-14T00:05:16;10.88;;;6.78;;
27003;SDS011;14546;47.590;19.022;2024-02-14T00:07:43;12.35;;;7.18;;
27003;SDS011;14546;47.590;19.022;2024-02-14T00:10:09;12.07;;;7.68;;
27003;SDS011;14546;47.590;19.022;2024-02-14T00:12:36;13.77;;;6.63;;
27003;SDS011;14546;47.590;19.022;2024-02-14T00:15:03;11.25;;;6.85;;
27003;SDS011;14546;47.590;19.022;2024-02-14T00:17:31;13.57;;;6.85;;
27003;SDS011;14546;47.590;19.022;2024-02-14T00:19:58;10.88;;;7.15;;
27003;SDS011;14546;47.590;19.022;2024-02-14T00:22:24;11.43;;;6.68;;
27003;SDS011;14546;47.590;19.022;2024-02-14T00:24:50;13.30;;;7.45;;
27003;SDS011;14546;47.590;19.022;2024-02-14T00:27:16;11.65;;;6.95;;
27003;SDS011;14546;47.590;19.022;2024-02-14T00:29:43;12.57;;;7.72;;
27003;SDS011;14546;47.590;19.022;2024-02-14T00:32:12;14.93;;;8.75;;
27003;SDS011;14546;47.590;19.022;2024-02-14T00:34:38;15.23;;;7.38;;
27003;SDS011;14546;47.590;19.022;2024-02-14T00:37:04;11.60;;;7.20;;
27003;SDS011;14546;47.590;19.022;2024-02-14T00:39:30;16.33;;;7.90;;
27003;SDS011;14546;47.590;19.022;2024-02-14T00:41:56;12.27;;;7.47;;
27003;SDS011;14546;47.590;19.022;2024-02-14T00:44:22;13.32;;;8.40;;
27003;SDS011;14546;47.590;19.022;2024-02-14T00:46:49;14.23;;;7.60;;
27003;SDS011;14546;47.590;19.022;2024-02-14T00:49:15;11.30;;;7.30;;
27003;SDS011;14546;47.590;19.022;2024-02-14T00:51:41;15.48;;;7.43;;
27003;SDS011;14546;47.590;19.022;2024-02-14T00:54:07;16.30;;;8.35;;
27003;SDS011;14546;47.590;19.022;2024-02-14T00:56:34;15.20;;;7.50;;
27003;SDS011;14546;47.590;19.022;2024-02-14T00:59:01;12.10;;;7.85;;
27003;SDS011;14546;47.590;19.022;2024-02-14T01:01:27;15.77;;;8.50;;
27003;SDS011;14546;47.590;19.022;2024-02-14T01:03:53;13.27;;;7.35;;
27003;SDS011;14546;47.590;19.022;2024-02-14T01:06:19;13.30;;;7.93;;
27003;SDS011;14546;47.590;19.022;2024-02-14T01:08:45;14.25;;;7.32;;
27003;SDS011;14546;47.590;19.022;2024-02-14T01:11:11;9.80;;;7.53;;
27003;SDS011;14546;47.590;19.022;2024-02-14T01:13:37;12.82;;;7.50;;
27003;SDS011;14546;47.590;19.022;2024-02-14T01:16:03;12.57;;;8.02;;
27003;SDS011;14546;47.590;19.022;2024-02-14T01:18:30;12.20;;;7.15;;
27003;SDS011;14546;47.590;19.022;2024-02-14T01:20:56;11.88;;;7.38;;
27003;SDS011;14546;47.590;19.022;2024-02-14T01:23:24;16.17;;;8.27;;
27003;SDS011;14546;47.590;19.022;2024-02-14T01:25:50;14.63;;;8.18;;
27003;SDS011;14546;47.590;19.022;2024-02-14T01:28:15;13.65;;;7.95;;
27003;SDS011;14546;47.590;19.022;2024-02-14T01:30:42;10.35;;;6.80;;
27003;SDS011;14546;47.590;19.022;2024-02-14T01:33:08;11.88;;;7.28;;
27003;SDS011;14546;47.590;19.022;2024-02-14T01:35:34;10.00;;;6.40;;
27003;SDS011;14546;47.590;19.022;2024-02-14T01:38:00;12.52;;;7.38;;
27003;SDS011;14546;47.590;19.022;2024-02-14T01:40:28;12.52;;;7.28;;
27003;SDS011;14546;47.590;19.022;2024-02-14T01:42:54;10.52;;;6.32;;
27003;SDS011;14546;47.590;19.022;2024-02-14T01:45:20;11.20;;;5.75;;
27003;SDS011;14546;47.590;19.022;2024-02-14T01:47:47;14.02;;;6.18;;
27003;SDS011;14546;47.590;19.022;2024-02-14T01:50:15;14.05;;;6.53;;
27003;SDS011;14546;47.590;19.022;2024-02-14T01:52:43;11.35;;;6.28;;
27003;SDS011;14546;47.590;19.022;2024-02-14T01:55:10;11.77;;;5.75;;
27003;SDS011;14546;47.590;19.022;2024-02-14T01:57:38;11.52;;;6.10;;
27003;SDS011;14546;47.590;19.022;2024-02-14T02:00:05;12.13;;;6.07;;
27003;SDS011;14546;47.590;19.022;2024-02-14T02:02:34;10.20;;;5.80;;
27003;SDS011;14546;47.590;19.022;2024-02-14T02:05:05;11.27;;;5.55;;
27003;SDS011;14546;47.590;19.022;2024-02-14T02:07:31;9.55;;;5.82;;
27003;SDS011;14546;47.590;19.022;2024-02-14T02:09:58;10.75;;;5.60;;
27003;SDS011;14546;47.590;19.022;2024-02-14T02:12:24;9.10;;;5.28;;
27003;SDS011;14546;47.590;19.022;2024-02-14T02:14:52;9.88;;;4.70;;
27003;SDS011;14546;47.590;19.022;2024-02-14T02:17:18;8.52;;;4.85;;
27003;SDS011;14546;47.590;19.022;2024-02-14T02:19:44;10.02;;;5.05;;
27003;SDS011;14546;47.590;19.022;2024-02-14T02:22:10;13.80;;;5.18;;
27003;SDS011;14546;47.590;19.022;2024-02-14T02:24:35;7.80;;;4.95;;
27003;SDS011;14546;47.590;19.022;2024-02-14T02:27:02;10.90;;;4.45;;
27003;SDS011;14546;47.590;19.022;2024-02-14T02:29:28;8.40;;;4.40;;
27003;SDS011;14546;47.590;19.022;2024-02-14T02:31:54;5.88;;;3.53;;
27003;SDS011;14546;47.590;19.022;2024-02-14T02:34:20;6.65;;;2.75;;
27003;SDS011;14546;47.590;19.022;2024-02-14T02:36:46;7.07;;;3.00;;
27003;SDS011;14546;47.590;19.022;2024-02-14T02:39:15;10.73;;;3.60;;
27003;SDS011;14546;47.590;19.022;2024-02-14T02:41:41;8.88;;;4.22;;
27003;SDS011;14546;47.590;19.022;2024-02-14T02:44:07;6.63;;;3.55;;
27003;SDS011;14546;47.590;19.022;2024-02-14T02:46:32;4.78;;;3.05;;
27003;SDS011;14546;47.590;19.022;2024-02-14T02:48:58;6.10;;;3.30;;
27003;SDS011;14546;47.590;19.022;2024-02-14T02:51:27;7.45;;;4.05;;
27003;SDS011;14546;47.590;19.022;2024-02-14T02:53:52;7.28;;;3.13;;
27003;SDS011;14546;47.590;19.022;2024-02-14T02:56:19;5.53;;;3.30;;
27003;SDS011;14546;47.590;19.022;2024-02-14T02:58:47;10.23;;;3.83;;
27003;SDS011;14546;47.590;19.022;2024-02-14T03:01:13;7.72;;;3.92;;
27003;SDS011;14546;47.590;19.022;2024-02-14T03:03:39;7.47;;;3.88;;
27003;SDS011;14546;47.590;19.022;2024-02-14T03:06:06;8.63;;;4.75;;
27003;SDS011;14546;47.590;19.022;2024-02-14T03:08:33;9.48;;;4.60;;
27003;SDS011;14546;47.590;19.022;2024-02-14T03:11:04;6.40;;;4.32;;
27003;SDS011;14546;47.590;19.022;2024-02-14T03:13:31;9.60;;;5.30;;
27003;SDS011;14546;47.590;19.022;2024-02-14T03:15:56;11.15;;;5.55;;
27003;SDS011;14546;47.590;19.022;2024-02-14T03:18:23;11.85;;;5.88;;
27003;SDS011;14546;47.590;19.022;2024-02-14T03:20:50;11.65;;;5.85;;
27003;SDS011;14546;47.590;19.022;2024-02-14T03:23:16;13.48;;;6.43;;
27003;SDS011;14546;47.590;19.022;2024-02-14T03:25:42;12.68;;;6.25;;
27003;SDS011;14546;47.590;19.022;2024-02-14T03:28:08;11.93;;;6.68;;
27003;SDS011;14546;47.590;19.022;2024-02-14T03:30:37;15.43;;;7.70;;
27003;SDS011;14546;47.590;19.022;2024-02-14T03:33:04;17.27;;;8.80;;
27003;SDS011;14546;47.590;19.022;2024-02-14T03:35:30;15.35;;;8.60;;
27003;SDS011;14546;47.590;19.022;2024-02-14T03:37:56;14.35;;;8.52;;
27003;SDS011;14546;47.590;19.022;2024-02-14T03:40:21;14.93;;;7.55;;
27003;SDS011;14546;47.590;19.022;2024-02-14T03:42:47;14.43;;;7.70;;
27003;SDS011;14546;47.590;19.022;2024-02-14T03:45:13;13.80;;;7.88;;
27003;SDS011;14546;47.590;19.022;2024-02-14T03:47:39;17.42;;;8.40;;
27003;SDS011;14546;47.590;19.022;2024-02-14T03:50:06;21.08;;;9.35;;
27003;SDS011;14546;47.590;19.022;2024-02-14T03:52:32;21.73;;;10.05;;
27003;SDS011;14546;47.590;19.022;2024-02-14T03:54:59;23.42;;;10.43;;
27003;SDS011;14546;47.590;19.022;2024-02-14T03:57:25;16.95;;;9.43;;
27003;SDS011;14546;47.590;19.022;2024-02-14T03:59:53;17.33;;;9.55;;
27003;SDS011;14546;47.590;19.022;2024-02-14T04:02:21;16.60;;;10.18;;
27003;SDS011;14546;47.590;19.022;2024-02-14T04:04:48;17.88;;;10.10;;
27003;SDS011;14546;47.590;19.022;2024-02-14T04:07:14;18.83;;;10.63;;
27003;SDS011;14546;47.590;19.022;2024-02-14T04:09:40;17.00;;;10.90;;
27003;SDS011;14546;47.590;19.022;2024-02-14T04:12:06;15.27;;;9.63;;
27003;SDS011;14546;47.590;19.022;2024-02-14T04:14:32;15.43;;;9.70;;
27003;SDS011;14546;47.590;19.022;2024-02-14T04:16:57;19.67;;;9.60;;
27003;SDS011;14546;47.590;19.022;2024-02-14T04:19:23;21.08;;;11.68;;
27003;SDS011;14546;47.590;19.022;2024-02-14T04:21:50;20.73;;;11.85;;
27003;SDS011;14546;47.590;19.022;2024-02-14T04:24:16;17.70;;;10.88;;
27003;SDS011;14546;47.590;19.022;2024-02-14T04:26:42;21.20;;;11.82;;
27003;SDS011;14546;47.590;19.022;2024-02-14T04:29:08;21.30;;;12.15;;
27003;SDS011;14546;47.590;19.022;2024-02-14T04:31:34;20.73;;;10.32;;
27003;SDS011;14546;47.590;19.022;2024-02-14T04:34:00;19.85;;;11.32;;
27003;SDS011;14546;47.590;19.022;2024-02-14T04:36:26;21.05;;;12.82;;
27003;SDS011;14546;47.590;19.022;2024-02-14T04:38:55;24.13;;;12.82;;
27003;SDS011;14546;47.590;19.022;2024-02-14T04:41:22;20.42;;;11.25;;
27003;SDS011;14546;47.590;19.022;2024-02-14T04:43:48;18.60;;;11.73;;
27003;SDS011;14546;47.590;19.022;2024-02-14T04:46:14;20.10;;;12.10;;
27003;SDS011;14546;47.590;19.022;2024-02-14T04:48:40;18.83;;;10.90;;
27003;SDS011;14546;47.590;19.022;2024-02-14T04:51:07;20.48;;;11.90;;
27003;SDS011;14546;47.590;19.022;2024-02-14T04:53:33;20.98;;;11.10;;
27003;SDS011;14546;47.590;19.022;2024-02-14T04:56:00;24.98;;;13.05;;
27003;SDS011;14546;47.590;19.022;2024-02-14T04:58:26;24.02;;;13.50;;
27003;SDS011;14546;47.590;19.022;2024-02-14T05:00:52;20.70;;;12.25;;
27003;SDS011;14546;47.590;19.022;2024-02-14T05:03:20;19.65;;;12.23;;
27003;SDS011;14546;47.590;19.022;2024-02-14T05:05:46;21.65;;;13.07;;
27003;SDS011;14546;47.590;19.022;2024-02-14T05:08:12;20.95;;;12.07;;
27003;SDS011;14546;47.590;19.022;2024-02-14T05:10:38;22.58;;;12.30;;
27003;SDS011;14546;47.590;19.022;2024-02-14T05:13:04;21.95;;;11.98;;
27003;SDS011;14546;47.590;19.022;2024-02-14T05:15:31;20.08;;;12.07;;
27003;SDS011;14546;47.590;19.022;2024-02-14T05:17:57;18.48;;;11.65;;
27003;SDS011;14546;47.590;19.022;2024-02-14T05:20:23;20.20;;;11.77;;
27003;SDS011;14546;47.590;19.022;2024-02-14T05:22:49;22.30;;;12.05;;
27003;SDS011;14546;47.590;19.022;2024-02-14T05:25:15;23.27;;;12.25;;
27003;SDS011;14546;47.590;19.022;2024-02-14T05:27:41;20.80;;;12.30;;
27003;SDS011;14546;47.590;19.022;2024-02-14T05:30:07;18.63;;;12.20;;
27003;SDS011;14546;47.590;19.022;2024-02-14T05:32:34;19.40;;;11.70;;
27003;SDS011;14546;47.590;19.022;2024-02-14T05:35:00;19.27;;;12.15;;
27003;SDS011;14546;47.590;19.022;2024-02-14T05:37:30;24.02;;;12.02;;
27003;SDS011;14546;47.590;19.022;2024-02-14T05:39:57;24.88;;;13.75;;
27003;SDS011;14546;47.590;19.022;2024-02-14T05:42:23;20.10;;;13.40;;
27003;SDS011;14546;47.590;19.022;2024-02-14T05:44:52;27.92;;;13.60;;
27003;SDS011;14546;47.590;19.022;2024-02-14T05:47:18;22.08;;;13.32;;
27003;SDS011;14546;47.590;19.022;2024-02-14T05:49:44;21.73;;;13.20;;
27003;SDS011;14546;47.590;19.022;2024-02-14T05:52:10;25.35;;;14.98;;
27003;SDS011;14546;47.590;19.022;2024-02-14T05:54:36;25.17;;;13.48;;
27003;SDS011;14546;47.590;19.022;2024-02-14T05:57:03;20.58;;;12.70;;
27003;SDS011;14546;47.590;19.022;2024-02-14T05:59:29;24.65;;;13.82;;
27003;SDS011;14546;47.590;19.022;2024-02-14T06:01:55;24.08;;;14.43;;
27003;SDS011;14546;47.590;19.022;2024-02-14T06:04:21;25.58;;;14.23;;
27003;SDS011;14546;47.590;19.022;2024-02-14T06:06:48;23.13;;;13.43;;
27003;SDS011;14546;47.590;19.022;2024-02-14T06:09:14;23.35;;;12.73;;
27003;SDS011;14546;47.590;19.022;2024-02-14T06:11:40;27.70;;;14.77;;
27003;SDS011;14546;47.590;19.022;2024-02-14T06:14:08;27.08;;;13.80;;
27003;SDS011;14546;47.590;19.022;2024-02-14T06:16:34;23.50;;;14.25;;
27003;SDS011;14546;47.590;19.022;2024-02-14T06:19:00;24.48;;;14.23;;
27003;SDS011;14546;47.590;19.022;2024-02-14T06:21:29;27.35;;;14.35;;
27003;SDS011;14546;47.590;19.022;2024-02-14T06:23:55;25.85;;;14.70;;
27003;SDS011;14546;47.590;19.022;2024-02-14T06:26:24;31.48;;;15.63;;
27003;SDS011;14546;47.590;19.022;2024-02-14T06:28:53;27.85;;;15.40;;
27003;SDS011;14546;47.590;19.022;2024-02-14T06:31:22;27.95;;;15.68;;
27003;SDS011;14546;47.590;19.022;2024-02-14T06:33:48;26.85;;;14.50;;
27003;SDS011;14546;47.590;19.022;2024-02-14T06:36:15;30.27;;;14.50;;
27003;SDS011;14546;47.590;19.022;2024-02-14T06:38:41;23.60;;;14.82;;
27003;SDS011;14546;47.590;19.022;2024-02-14T06:41:08;25.73;;;14.32;;
27003;SDS011;14546;47.590;19.022;2024-02-14T06:43:34;28.70;;;14.30;;
27003;SDS011;14546;47.590;19.022;2024-02-14T06:46:03;26.02;;;13.95;;
27003;SDS011;14546;47.590;19.022;2024-02-14T06:48:29;22.45;;;13.95;;
27003;SDS011;14546;47.590;19.022;2024-02-14T06:50:55;24.58;;;14.30;;
27003;SDS011;14546;47.590;19.022;2024-02-14T06:53:22;27.00;;;14.55;;
27003;SDS011;14546;47.590;19.022;2024-02-14T06:55:48;24.88;;;14.20;;
27003;SDS011;14546;47.590;19.022;2024-02-14T06:58:14;28.48;;;14.68;;
27003;SDS011;14546;47.590;19.022;2024-02-14T07:00:40;31.52;;;14.80;;
27003;SDS011;14546;47.590;19.022;2024-02-14T07:03:06;23.15;;;13.40;;
27003;SDS011;14546;47.590;19.022;2024-02-14T07:05:32;25.73;;;14.38;;
27003;SDS011;14546;47.590;19.022;2024-02-14T07:07:58;27.60;;;15.05;;
27003;SDS011;14546;47.590;19.022;2024-02-14T07:10:24;26.77;;;14.55;;
27003;SDS011;14546;47.590;19.022;2024-02-14T07:12:51;28.30;;;14.52;;
27003;SDS011;14546;47.590;19.022;2024-02-14T07:15:17;24.40;;;14.07;;
27003;SDS011;14546;47.590;19.022;2024-02-14T07:17:43;26.80;;;14.35;;
27003;SDS011;14546;47.590;19.022;2024-02-14T07:20:09;29.40;;;15.00;;
27003;SDS011;14546;47.590;19.022;2024-02-14T07:22:35;23.23;;;14.15;;
27003;SDS011;14546;47.590;19.022;2024-02-14T07:25:02;27.33;;;14.45;;
27003;SDS011;14546;47.590;19.022;2024-02-14T07:27:30;37.60;;;15.63;;
27003;SDS011;14546;47.590;19.022;2024-02-14T07:29:56;35.28;;;14.57;;
27003;SDS011;14546;47.590;19.022;2024-02-14T07:32:22;31.33;;;15.07;;
27003;SDS011;14546;47.590;19.022;2024-02-14T07:34:48;26.08;;;14.23;;
27003;SDS011;14546;47.590;19.022;2024-02-14T07:37:15;33.90;;;15.85;;
27003;SDS011;14546;47.590;19.022;2024-02-14T07:39:44;32.55;;;16.48;;
27003;SDS011;14546;47.590;19.022;2024-02-14T07:42:11;30.65;;;15.55;;
27003;SDS011;14546;47.590;19.022;2024-02-14T07:44:40;25.13;;;15.80;;
27003;SDS011;14546;47.590;19.022;2024-02-14T07:47:06;30.35;;;15.48;;
27003;SDS011;14546;47.590;19.022;2024-02-14T07:49:32;27.30;;;16.48;;
27003;SDS011;14546;47.590;19.022;2024-02-14T07:51:58;35.78;;;16.15;;
27003;SDS011;14546;47.590;19.022;2024-02-14T07:54:24;28.08;;;15.43;;
27003;SDS011;14546;47.590;19.022;2024-02-14T07:56:50;29.98;;;16.10;;
27003;SDS011;14546;47.590;19.022;2024-02-14T07:59:16;27.88;;;15.15;;
27003;SDS011;14546;47.590;19.022;2024-02-14T08:01:42;26.35;;;15.63;;
27003;SDS011;14546;47.590;19.022;2024-02-14T08:04:09;31.05;;;16.40;;
27003;SDS011;14546;47.590;19.022;2024-02-14T08:06:35;28.88;;;16.48;;
27003;SDS011;14546;47.590;19.022;2024-02-14T08:09:01;29.23;;;15.63;;
27003;SDS011;14546;47.590;19.022;2024-02-14T08:11:31;37.60;;;16.88;;
27003;SDS011;14546;47.590;19.022;2024-02-14T08:13:57;30.48;;;15.52;;
27003;SDS011;14546;47.590;19.022;2024-02-14T08:16:25;25.35;;;14.98;;
27003;SDS011;14546;47.590;19.022;2024-02-14T08:18:51;30.52;;;15.98;;
27003;SDS011;14546;47.590;19.022;2024-02-14T08:21:24;28.80;;;16.30;;
27003;SDS011;14546;47.590;19.022;2024-02-14T08:23:50;28.50;;;14.70;;
27003;SDS011;14546;47.590;19.022;2024-02-14T08:26:17;30.23;;;15.75;;
27003;SDS011;14546;47.590;19.022;2024-02-14T08:28:43;24.08;;;13.75;;
27003;SDS011;14546;47.590;19.022;2024-02-14T08:31:09;32.30;;;14.43;;
27003;SDS011;14546;47.590;19.022;2024-02-14T08:33:36;31.83;;;16.60;;
27003;SDS011;14546;47.590;19.022;2024-02-14T08:36:03;24.83;;;13.50;;
27003;SDS011;14546;47.590;19.022;2024-02-14T08:38:29;25.80;;;12.80;;
27003;SDS011;14546;47.590;19.022;2024-02-14T08:40:55;18.65;;;10.00;;
27003;SDS011;14546;47.590;19.022;2024-02-14T08:43:22;14.75;;;8.93;;
27003;SDS011;14546;47.590;19.022;2024-02-14T08:45:50;12.55;;;7.90;;
27003;SDS011;14546;47.590;19.022;2024-02-14T08:48:16;14.63;;;8.02;;
27003;SDS011;14546;47.590;19.022;2024-02-14T08:50:44;14.15;;;7.30;;
27003;SDS011;14546;47.590;19.022;2024-02-14T08:53:11;12.70;;;6.50;;
27003;SDS011;14546;47.590;19.022;2024-02-14T08:55:39;11.07;;;7.15;;
27003;SDS011;14546;47.590;19.022;2024-02-14T08:58:05;10.95;;;6.70;;
27003;SDS011;14546;47.590;19.022;2024-02-14T09:00:31;13.32;;;6.85;;
27003;SDS011;14546;47.590;19.022;2024-02-14T09:03:00;19.10;;;7.65;;
27003;SDS011;14546;47.590;19.022;2024-02-14T09:05:26;17.05;;;7.57;;
27003;SDS011;14546;47.590;19.022;2024-02-14T09:07:53;15.68;;;7.95;;
27003;SDS011;14546;47.590;19.022;2024-02-14T09:10:19;18.40;;;8.20;;
27003;SDS011;14546;47.590;19.022;2024-02-14T09:12:45;15.18;;;8.70;;
27003;SDS011;14546;47.590;19.022;2024-02-14T09:15:11;13.77;;;7.10;;
27003;SDS011;14546;47.590;19.022;2024-02-14T09:17:38;13.70;;;6.63;;
27003;SDS011;14546;47.590;19.022;2024-02-14T09:20:06;18.50;;;7.55;;
27003;SDS011;14546;47.590;19.022;2024-02-14T09:22:37;12.38;;;7.05;;
27003;SDS011;14546;47.590;19.022;2024-02-14T09:25:03;13.48;;;6.43;;
27003;SDS011;14546;47.590;19.022;2024-02-14T09:27:30;14.40;;;6.25;;
27003;SDS011;14546;47.590;19.022;2024-02-14T09:29:58;12.30;;;6.50;;
27003;SDS011;14546;47.590;19.022;2024-02-14T09:32:24;9.63;;;6.00;;
27003;SDS011;14546;47.590;19.022;2024-02-14T09:34:51;12.88;;;5.57;;
27003;SDS011;14546;47.590;19.022;2024-02-14T09:37:17;13.10;;;6.07;;
27003;SDS011;14546;47.590;19.022;2024-02-14T09:39:44;12.13;;;6.05;;
27003;SDS011;14546;47.590;19.022;2024-02-14T09:42:11;16.98;;;6.80;;
27003;SDS011;14546;47.590;19.022;2024-02-14T09:44:40;16.10;;;6.50;;
27003;SDS011;14546;47.590;19.022;2024-02-14T09:47:07;10.48;;;6.15;;
27003;SDS011;14546;47.590;19.022;2024-02-14T09:49:34;12.23;;;6.13;;
27003;SDS011;14546;47.590;19.022;2024-02-14T09:52:04;12.35;;;4.88;;
27003;SDS011;14546;47.590;19.022;2024-02-14T09:54:31;14.27;;;5.13;;
27003;SDS011;14546;47.590;19.022;2024-02-14T09:57:01;11.10;;;5.38;;
27003;SDS011;14546;47.590;19.022;2024-02-14T09:59:28;8.25;;;4.18;;
27003;SDS011;14546;47.590;19.022;2024-02-14T10:01:55;8.02;;;3.85;;
27003;SDS011;14546;47.590;19.022;2024-02-14T10:04:21;6.90;;;3.75;;
27003;SDS011;14546;47.590;19.022;2024-02-14T10:06:50;9.18;;;4.45;;
27003;SDS011;14546;47.590;19.022;2024-02-14T10:09:20;5.97;;;3.80;;
27003;SDS011;14546;47.590;19.022;2024-02-14T10:11:47;7.47;;;4.40;;
27003;SDS011;14546;47.590;19.022;2024-02-14T10:14:13;6.68;;;3.78;;
27003;SDS011;14546;47.590;19.022;2024-02-14T10:16:40;6.40;;;3.15;;
27003;SDS011;14546;47.590;19.022;2024-02-14T10:19:14;6.70;;;3.13;;
27003;SDS011;14546;47.590;19.022;2024-02-14T10:21:40;7.53;;;3.90;;
27003;SDS011;14546;47.590;19.022;2024-02-14T10:24:07;6.05;;;3.40;;
27003;SDS011;14546;47.590;19.022;2024-02-14T10:26:36;8.68;;;3.20;;
27003;SDS011;14546;47.590;19.022;2024-02-14T10:29:02;5.45;;;2.97;;
27003;SDS011;14546;47.590;19.022;2024-02-14T10:31:28;4.60;;;2.95;;
27003;SDS011;14546;47.590;19.022;2024-02-14T10:33:55;9.25;;;3.35;;
27003;SDS011;14546;47.590;19.022;2024-02-14T10:36:21;5.07;;;3.05;;
27003;SDS011;14546;47.590;19.022;2024-02-14T10:38:48;5.30;;;3.03;;
27003;SDS011;14546;47.590;19.022;2024-02-14T10:41:15;12.48;;;3.85;;
27003;SDS011;14546;47.590;19.022;2024-02-14T10:43:42;6.43;;;3.50;;
27003;SDS011;14546;47.590;19.022;2024-02-14T10:46:20;5.25;;;2.95;;
27003;SDS011;14546;47.590;19.022;2024-02-14T10:49:09;8.52;;;3.60;;
27003;SDS011;14546;47.590;19.022;2024-02-14T10:51:38;6.50;;;3.00;;
27003;SDS011;14546;47.590;19.022;2024-02-14T10:54:12;5.65;;;2.88;;
27003;SDS011;14546;47.590;19.022;2024-02-14T10:56:42;9.68;;;3.20;;
27003;SDS011;14546;47.590;19.022;2024-02-14T10:59:08;6.22;;;3.22;;
27003;SDS011;14546;47.590;19.022;2024-02-14T11:01:36;5.60;;;3.47;;
27003;SDS011;14546;47.590;19.022;2024-02-14T11:04:03;3.58;;;2.38;;
27003;SDS011;14546;47.590;19.022;2024-02-14T11:06:30;12.88;;;2.97;;
27003;SDS011;14546;47.590;19.022;2024-02-14T11:09:00;7.00;;;3.17;;
27003;SDS011;14546;47.590;19.022;2024-02-14T11:11:30;5.22;;;2.95;;
27003;SDS011;14546;47.590;19.022;2024-02-14T11:13:56;5.15;;;2.80;;
27003;SDS011;14546;47.590;19.022;2024-02-14T11:16:23;4.78;;;3.33;;
27003;SDS011;14546;47.590;19.022;2024-02-14T11:18:52;4.88;;;3.20;;
27003;SDS011;14546;47.590;19.022;2024-02-14T11:21:19;6.68;;;3.22;;
27003;SDS011;14546;47.590;19.022;2024-02-14T11:23:54;4.72;;;3.15;;
27003;SDS011;14546;47.590;19.022;2024-02-14T11:26:21;5.78;;;3.20;;
27003;SDS011;14546;47.590;19.022;2024-02-14T11:28:48;6.03;;;3.47;;
27003;SDS011;14546;47.590;19.022;2024-02-14T11:31:16;5.18;;;3.70;;
27003;SDS011;14546;47.590;19.022;2024-02-14T11:33:43;8.93;;;3.20;;
27003;SDS011;14546;47.590;19.022;2024-02-14T11:36:11;5.03;;;3.60;;
27003;SDS011;14546;47.590;19.022;2024-02-14T11:38:40;5.50;;;3.53;;
27003;SDS011;14546;47.590;19.022;2024-02-14T11:41:06;5.53;;;3.50;;
27003;SDS011;14546;47.590;19.022;2024-02-14T11:43:34;6.25;;;3.47;;
27003;SDS011;14546;47.590;19.022;2024-02-14T11:46:00;6.03;;;3.30;;
27003;SDS011;14546;47.590;19.022;2024-02-14T11:48:29;8.05;;;3.58;;
27003;SDS011;14546;47.590;19.022;2024-02-14T11:50:57;5.13;;;3.17;;
27003;SDS011;14546;47.590;19.022;2024-02-14T11:53:23;5.68;;;3.08;;
27003;SDS011;14546;47.590;19.022;2024-02-14T11:55:49;6.38;;;2.92;;
27003;SDS011;14546;47.590;19.022;2024-02-14T11:58:16;4.50;;;2.70;;
27003;SDS011;14546;47.590;19.022;2024-02-14T12:00:43;4.75;;;2.83;;
27003;SDS011;14546;47.590;19.022;2024-02-14T12:03:15;5.32;;;2.95;;
27003;SDS011;14546;47.590;19.022;2024-02-14T12:05:41;5.25;;;2.80;;
27003;SDS011;14546;47.590;19.022;2024-02-14T12:08:12;5.28;;;3.00;;
27003;SDS011;14546;47.590;19.022;2024-02-14T12:10:38;5.93;;;3.40;;
27003;SDS011;14546;47.590;19.022;2024-02-14T12:13:08;5.38;;;3.58;;
27003;SDS011;14546;47.590;19.022;2024-02-14T12:15:38;4.82;;;3.58;;
27003;SDS011;14546;47.590;19.022;2024-02-14T12:18:04;6.53;;;3.83;;
27003;SDS011;14546;47.590;19.022;2024-02-14T12:20:31;5.75;;;3.85;;
27003;SDS011;14546;47.590;19.022;2024-02-14T12:22:58;6.10;;;3.42;;
27003;SDS011;14546;47.590;19.022;2024-02-14T12:25:25;6.20;;;3.88;;
27003;SDS011;14546;47.590;19.022;2024-02-14T12:27:51;6.97;;;3.70;;
27003;SDS011;14546;47.590;19.022;2024-02-14T12:30:18;8.23;;;3.40;;
27003;SDS011;14546;47.590;19.022;2024-02-14T12:32:45;10.88;;;5.15;;
27003;SDS011;14546;47.590;19.022;2024-02-14T12:35:11;5.63;;;3.83;;
27003;SDS011;14546;47.590;19.022;2024-02-14T12:37:37;8.82;;;4.45;;
27003;SDS011;14546;47.590;19.022;2024-02-14T12:40:04;7.80;;;4.65;;
27003;SDS011;14546;47.590;19.022;2024-02-14T12:42:31;7.75;;;4.80;;
27003;SDS011;14546;47.590;19.022;2024-02-14T12:44:58;6.10;;;4.60;;
27003;SDS011;14546;47.590;19.022;2024-02-14T12:47:24;13.13;;;5.25;;
27003;SDS011;14546;47.590;19.022;2024-02-14T12:49:59;12.63;;;5.88;;
27003;SDS011;14546;47.590;19.022;2024-02-14T12:52:25;11.82;;;5.75;;
27003;SDS011;14546;47.590;19.022;2024-02-14T12:54:52;9.93;;;5.97;;
27003;SDS011;14546;47.590;19.022;2024-02-14T12:57:18;12.45;;;6.20;;
27003;SDS011;14546;47.590;19.022;2024-02-14T12:59:46;14.60;;;6.80;;
27003;SDS011;14546;47.590;19.022;2024-02-14T13:02:12;12.98;;;6.35;;
27003;SDS011;14546;47.590;19.022;2024-02-14T13:04:39;13.00;;;6.82;;
27003;SDS011;14546;47.590;19.022;2024-02-14T13:07:05;10.98;;;5.55;;
27003;SDS011;14546;47.590;19.022;2024-02-14T13:09:31;9.30;;;5.85;;
27003;SDS011;14546;47.590;19.022;2024-02-14T13:11:57;13.27;;;6.65;;
27003;SDS011;14546;47.590;19.022;2024-02-14T13:14:24;12.85;;;6.38;;
27003;SDS011;14546;47.590;19.022;2024-02-14T13:16:50;11.48;;;7.07;;
27003;SDS011;14546;47.590;19.022;2024-02-14T13:19:16;14.40;;;6.50;;
27003;SDS011;14546;47.590;19.022;2024-02-14T13:21:42;11.50;;;6.93;;
27003;SDS011;14546;47.590;19.022;2024-02-14T13:24:10;12.52;;;7.00;;
27003;SDS011;14546;47.590;19.022;2024-02-14T13:26:38;13.95;;;7.70;;
27003;SDS011;14546;47.590;19.022;2024-02-14T13:29:04;10.52;;;7.05;;
27003;SDS011;14546;47.590;19.022;2024-02-14T13:31:30;19.95;;;7.82;;
27003;SDS011;14546;47.590;19.022;2024-02-14T13:33:56;15.35;;;7.75;;
27003;SDS011;14546;47.590;19.022;2024-02-14T13:36:22;11.30;;;7.80;;
27003;SDS011;14546;47.590;19.022;2024-02-14T13:38:49;11.30;;;7.93;;
27003;SDS011;14546;47.590;19.022;2024-02-14T13:41:15;14.00;;;7.88;;
27003;SDS011;14546;47.590;19.022;2024-02-14T13:43:42;12.82;;;7.85;;
27003;SDS011;14546;47.590;19.022;2024-02-14T13:46:09;10.25;;;7.45;;
27003;SDS011;14546;47.590;19.022;2024-02-14T13:48:35;11.60;;;7.38;;
27003;SDS011;14546;47.590;19.022;2024-02-14T13:51:02;11.27;;;7.25;;
27003;SDS011;14546;47.590;19.022;2024-02-14T13:53:28;10.85;;;6.97;;
27003;SDS011;14546;47.590;19.022;2024-02-14T13:55:54;16.60;;;8.48;;
27003;SDS011;14546;47.590;19.022;2024-02-14T13:58:21;15.75;;;8.57;;
27003;SDS011;14546;47.590;19.022;2024-02-14T14:00:47;13.18;;;8.00;;
27003;SDS011;14546;47.590;19.022;2024-02-14T14:03:13;14.60;;;8.40;;
27003;SDS011;14546;47.590;19.022;2024-02-14T14:05:39;15.07;;;7.80;;
27003;SDS011;14546;47.590;19.022;2024-02-14T14:08:06;13.38;;;8.50;;
27003;SDS011;14546;47.590;19.022;2024-02-14T14:10:32;17.02;;;7.45;;
27003;SDS011;14546;47.590;19.022;2024-02-14T14:12:58;16.38;;;7.35;;
27003;SDS011;14546;47.590;19.022;2024-02-14T14:15:24;11.95;;;7.35;;
27003;SDS011;14546;47.590;19.022;2024-02-14T14:17:51;13.13;;;7.43;;